Time;durP1;ratioP1;P1;durP2;ratioP2;P2;SDS_P1;SDS_P2;PMS_P1;PMS_P2;Temp;Humidity;BMP_temperature;BMP_pressure;BME280_temperature;BME280_humidity;BME280_pressure;Samples;Min_cycle;Max_cycle;Signal;HPM_P1;HPM_P2
2020/12/27 00:02:25;;;;;;;1999.90;999.90;;;4.90;99.90;;;;;;5032373;28;20172;-67
2020/12/27 00:04:50;;;;;;;1999.90;999.90;;;4.90;99.90;;;;;;5032213;28;20184;-67
2020/12/27 00:07:16;;;;;;;1999.90;999.90;;;4.90;99.90;;;;;;5032271;28;20255;-67
2020/12/27 00:09:43;;;;;;;1999.90;999.90;;;4.90;99.90;;;;;;5031911;28;20188;-69
2020/12/27 00:12:10;;;;;;;1999.90;999.90;;;4.90;99.90;;;;;;5032315;28;20567;-68
2020/12/27 00:14:36;;;;;;;1999.90;999.90;;;4.90;99.90;;;;;;5031984;28;20200;-68
2020/12/27 00:17:10;;;;;;;1999.90;999.90;;;4.90;99.90;;;;;;5032002;28;20679;-68
2020/12/27 00:19:36;;;;;;;1999.90;999.90;;;4.80;99.90;;;;;;5031937;28;20671;-68
2020/12/27 00:22:03;;;;;;;1999.90;999.90;;;4.90;99.90;;;;;;5031382;28;20191;-68
2020/12/27 00:24:28;;;;;;;1999.90;999.90;;;4.90;99.90;;;;;;5031652;28;20442;-68
2020/12/27 00:26:54;;;;;;;1999.90;999.90;;;4.90;99.90;;;;;;5031865;28;20634;-68
2020/12/27 00:29:20;;;;;;;1999.90;999.90;;;4.90;99.90;;;;;;5031443;28;20172;-68
2020/12/27 00:31:49;;;;;;;1999.90;999.90;;;4.90;99.90;;;;;;5031739;28;20411;-68
2020/12/27 00:34:15;;;;;;;1999.90;999.90;;;4.90;99.90;;;;;;5031521;28;20208;-68
2020/12/27 00:36:41;;;;;;;1999.90;999.90;;;4.90;99.90;;;;;;5031719;28;20172;-68
2020/12/27 00:39:06;;;;;;;1999.90;999.90;;;4.90;99.90;;;;;;5031406;28;20164;-68
2020/12/27 00:41:33;;;;;;;1999.90;999.90;;;5.00;99.90;;;;;;5031598;28;20192;-68
2020/12/27 00:43:59;;;;;;;1999.90;999.90;;;5.00;99.90;;;;;;5031787;28;20673;-68
2020/12/27 00:46:24;;;;;;;1999.90;999.90;;;5.00;99.90;;;;;;5031488;28;20503;-68
2020/12/27 00:48:50;;;;;;;1999.90;999.90;;;5.00;99.90;;;;;;5031261;28;20172;-68
2020/12/27 00:51:23;;;;;;;1999.90;999.90;;;4.90;99.90;;;;;;5031449;28;20164;-68
2020/12/27 00:53:49;;;;;;;1999.90;999.90;;;4.90;99.90;;;;;;5031276;28;20250;-68
2020/12/27 00:56:15;;;;;;;1999.90;999.90;;;4.90;99.90;;;;;;5031370;28;20568;-68
2020/12/27 00:58:42;;;;;;;1999.90;999.90;;;4.90;99.90;;;;;;5031032;28;20404;-69
2020/12/27 01:01:11;;;;;;;1999.90;999.90;;;4.90;99.90;;;;;;5031526;28;20743;-69
2020/12/27 01:03:37;;;;;;;1999.90;999.90;;;4.90;99.90;;;;;;5031199;28;20196;-67
2020/12/27 01:06:03;;;;;;;1999.90;999.90;;;5.00;99.90;;;;;;5031190;28;20179;-68
2020/12/27 01:08:29;;;;;;;1999.90;999.90;;;5.00;99.90;;;;;;5030866;28;20208;-68
2020/12/27 01:10:54;;;;;;;1999.90;999.90;;;4.90;99.90;;;;;;5031033;28;20403;-68
2020/12/27 01:13:20;;;;;;;1999.90;999.90;;;4.90;99.90;;;;;;5030933;28;20455;-68
2020/12/27 01:15:47;;;;;;;1999.90;999.90;;;4.90;99.90;;;;;;5031042;28;20252;-68
2020/12/27 01:18:13;;;;;;;1999.90;999.90;;;4.90;99.90;;;;;;5030700;28;20168;-68
2020/12/27 01:20:38;;;;;;;1999.90;999.90;;;4.90;99.90;;;;;;5031016;28;20179;-68
2020/12/27 01:23:04;;;;;;;1999.90;999.90;;;4.90;99.90;;;;;;5030961;28;20406;-68
2020/12/27 01:25:30;;;;;;;1999.90;999.90;;;5.00;99.90;;;;;;5031087;28;20556;-68
2020/12/27 01:27:55;;;;;;;1999.90;999.90;;;5.00;99.90;;;;;;5031186;28;20518;-68
2020/12/27 01:30:21;;;;;;;1999.90;999.90;;;5.10;99.90;;;;;;5030920;28;20168;-68
2020/12/27 01:32:47;;;;;;;1999.90;999.90;;;5.10;99.90;;;;;;5030092;28;20168;-68
2020/12/27 01:35:12;;;;;;;1999.90;999.90;;;5.10;99.90;;;;;;5030877;28;20533;-68
2020/12/27 01:37:38;;;;;;;1999.90;999.90;;;5.10;99.90;;;;;;5030768;28;20528;-68
2020/12/27 01:40:05;;;;;;;1999.90;999.90;;;5.10;99.90;;;;;;5030467;28;20168;-68
2020/12/27 01:42:30;;;;;;;1999.90;999.90;;;5.10;99.90;;;;;;5030708;28;20239;-68
2020/12/27 01:44:56;;;;;;;1999.90;999.90;;;5.10;99.90;;;;;;5030655;28;20277;-68
2020/12/27 01:47:23;;;;;;;1999.90;999.90;;;5.10;99.90;;;;;;5030693;28;20176;-68
2020/12/27 01:49:50;;;;;;;1999.90;999.90;;;5.10;99.90;;;;;;5030553;28;20172;-68
2020/12/27 01:52:16;;;;;;;1999.90;999.90;;;5.20;99.90;;;;;;5030643;28;20182;-68
2020/12/27 01:54:43;;;;;;;1999.90;999.90;;;5.20;99.90;;;;;;5030498;28;20204;-68
2020/12/27 01:57:13;;;;;;;1999.90;999.90;;;5.30;99.90;;;;;;5030606;28;20183;-68
2020/12/27 01:59:39;;;;;;;1999.90;999.90;;;5.30;99.90;;;;;;5030533;28;20168;-68
2020/12/27 02:02:07;;;;;;;1999.90;999.90;;;5.30;99.90;;;;;;5030562;28;20457;-68
2020/12/27 02:04:33;;;;;;;1999.90;999.90;;;5.40;99.90;;;;;;5030654;28;20669;-70
2020/12/27 02:06:59;;;;;;;1999.90;999.90;;;5.40;99.90;;;;;;5030684;28;20469;-69
2020/12/27 02:09:24;;;;;;;1999.90;999.90;;;5.40;99.90;;;;;;5030707;28;20407;-68
2020/12/27 02:12:08;;;;;;;1999.90;999.90;;;5.40;99.90;;;;;;5030751;28;20399;-68
2020/12/27 02:14:35;;;;;;;1999.90;999.90;;;5.40;99.90;;;;;;5030640;28;20227;-68
2020/12/27 02:17:03;;;;;;;1999.90;999.90;;;5.40;99.90;;;;;;5030735;28;20415;-69
2020/12/27 02:19:28;;;;;;;1999.90;999.90;;;5.40;99.90;;;;;;5030413;28;20926;-69
2020/12/27 02:21:54;;;;;;;1999.90;999.90;;;5.50;99.90;;;;;;5030646;28;20490;-68
2020/12/27 02:24:20;;;;;;;1999.90;999.90;;;5.40;99.90;;;;;;5030720;28;20322;-68
2020/12/27 02:26:59;;;;;;;1999.90;999.90;;;5.40;99.90;;;;;;5030662;28;20514;-69
2020/12/27 02:29:26;;;;;;;1999.90;999.90;;;5.40;99.90;;;;;;5030230;28;20168;-69
2020/12/27 02:31:53;;;;;;;1999.90;999.90;;;5.30;99.90;;;;;;5030496;28;20400;-69
2020/12/27 02:34:19;;;;;;;1999.90;999.90;;;5.40;99.90;;;;;;5030545;28;20196;-69
2020/12/27 02:36:45;;;;;;;1999.90;999.90;;;5.40;99.90;;;;;;5030536;28;20549;-69
2020/12/27 02:39:13;;;;;;;1999.90;999.90;;;5.30;99.90;;;;;;5030204;28;20230;-69
2020/12/27 02:41:39;;;;;;;1999.90;999.90;;;5.40;99.90;;;;;;5031030;28;20514;-68
2020/12/27 02:44:06;;;;;;;1999.90;999.90;;;5.40;99.90;;;;;;5031047;28;20419;-69
2020/12/27 02:46:31;;;;;;;1999.90;999.90;;;5.30;99.90;;;;;;5034075;28;20419;-69
2020/12/27 02:48:57;;;;;;;1999.90;999.90;;;5.30;99.90;;;;;;5033859;28;20411;-69
2020/12/27 02:51:24;;;;;;;1999.90;999.90;;;5.30;99.90;;;;;;5033688;28;20439;-69
2020/12/27 02:53:51;;;;;;;1999.90;999.90;;;5.30;99.90;;;;;;5033950;28;20208;-70
2020/12/27 02:56:21;;;;;;;1999.90;999.90;;;5.30;99.90;;;;;;5033930;28;20407;-68
2020/12/27 02:58:48;;;;;;;1999.90;999.90;;;5.30;99.90;;;;;;5033670;28;20164;-68
2020/12/27 03:01:14;;;;;;;1999.90;999.90;;;5.20;99.90;;;;;;5033532;28;20416;-68
2020/12/27 03:03:40;;;;;;;1999.90;999.90;;;5.20;99.90;;;;;;5033383;28;20277;-68
2020/12/27 03:06:06;;;;;;;1999.90;999.90;;;5.20;99.90;;;;;;5033333;28;20403;-68
2020/12/27 03:08:32;;;;;;;1999.90;999.90;;;5.20;99.90;;;;;;5033044;28;20184;-68
2020/12/27 03:10:58;;;;;;;1999.90;999.90;;;5.20;99.90;;;;;;5033268;28;20786;-67
2020/12/27 03:13:23;;;;;;;1999.90;999.90;;;5.20;99.90;;;;;;5033106;28;20466;-68
2020/12/27 03:15:51;;;;;;;1999.90;999.90;;;5.20;99.90;;;;;;5033115;28;20916;-68
2020/12/27 03:18:18;;;;;;;1999.90;999.90;;;5.20;99.90;;;;;;5032842;28;20701;-68
2020/12/27 03:20:43;;;;;;;1999.90;999.90;;;5.10;99.90;;;;;;5033087;28;20434;-68
2020/12/27 03:23:09;;;;;;;1999.90;999.90;;;5.20;99.90;;;;;;5033165;28;20204;-68
2020/12/27 03:25:35;;;;;;;1999.90;999.90;;;5.20;99.90;;;;;;5032810;28;20449;-68
2020/12/27 03:28:01;;;;;;;1999.90;999.90;;;5.20;99.90;;;;;;5032928;28;20458;-69
2020/12/27 03:30:26;;;;;;;1999.90;999.90;;;5.20;99.90;;;;;;5032744;28;20173;-68
2020/12/27 03:32:52;;;;;;;1999.90;999.90;;;5.20;99.90;;;;;;5032743;28;20172;-68
2020/12/27 03:35:17;;;;;;;1999.90;999.90;;;5.20;99.90;;;;;;5032745;28;20271;-68
2020/12/27 03:37:43;;;;;;;1999.90;999.90;;;5.20;99.90;;;;;;5032786;28;20169;-68
2020/12/27 03:40:09;;;;;;;1999.90;999.90;;;5.20;99.90;;;;;;5032446;28;20668;-68
2020/12/27 03:42:34;;;;;;;1999.90;999.90;;;5.20;99.90;;;;;;5032766;28;20168;-68
2020/12/27 03:45:01;;;;;;;1999.90;999.90;;;5.10;99.90;;;;;;5032607;28;20720;-68
2020/12/27 03:47:26;;;;;;;1999.90;999.90;;;5.10;99.90;;;;;;5032515;28;20481;-68
2020/12/27 03:49:52;;;;;;;1999.90;999.90;;;5.20;99.90;;;;;;5032329;28;20454;-68
2020/12/27 03:52:17;;;;;;;1999.90;999.90;;;5.20;99.90;;;;;;5032517;28;20164;-68
2020/12/27 03:54:43;;;;;;;1999.90;999.90;;;5.20;99.90;;;;;;5032421;28;20212;-68
2020/12/27 03:57:09;;;;;;;1999.90;999.90;;;5.20;99.90;;;;;;5031525;28;20199;-68
2020/12/27 03:59:34;;;;;;;1999.90;999.90;;;5.20;99.90;;;;;;5032112;28;20704;-68
2020/12/27 04:02:00;;;;;;;1999.90;999.90;;;5.20;99.90;;;;;;5032326;28;20168;-68
2020/12/27 04:04:26;;;;;;;1999.90;999.90;;;5.20;99.90;;;;;;5032255;28;20267;-68
2020/12/27 04:06:52;;;;;;;1999.90;999.90;;;5.20;99.90;;;;;;5032181;28;20176;-68
2020/12/27 04:09:18;;;;;;;1999.90;999.90;;;5.10;99.90;;;;;;5031975;28;20176;-68
2020/12/27 04:11:43;;;;;;;1999.90;999.90;;;5.10;99.90;;;;;;5032205;28;20199;-68
2020/12/27 04:14:09;;;;;;;1999.90;999.90;;;5.10;99.90;;;;;;5032028;28;20571;-68
2020/12/27 04:16:34;;;;;;;1999.90;999.90;;;5.20;99.90;;;;;;5032101;28;20176;-67
2020/12/27 04:19:00;;;;;;;1999.90;999.90;;;5.20;99.90;;;;;;5031764;28;20567;-68
2020/12/27 04:21:25;;;;;;;1999.90;999.90;;;5.20;99.90;;;;;;5032231;28;20263;-68
2020/12/27 04:23:51;;;;;;;1999.90;999.90;;;5.20;99.90;;;;;;5049271;22;20239;-61
2020/12/27 04:26:17;;;;;;;1999.90;999.90;;;5.20;99.90;;;;;;5031250;28;20191;-61
2020/12/27 04:28:43;;;;;;;1999.90;999.90;;;5.20;99.90;;;;;;5032066;28;20524;-59
2020/12/27 04:31:16;;;;;;;1999.90;999.90;;;5.20;99.90;;;;;;5032448;28;20630;-61
2020/12/27 04:33:41;;;;;;;1999.90;999.90;;;5.20;99.90;;;;;;5032190;28;20208;-63
2020/12/27 04:36:07;;;;;;;1999.90;999.90;;;5.20;99.90;;;;;;5032070;28;20533;-62
2020/12/27 04:38:33;;;;;;;1999.90;999.90;;;5.20;99.90;;;;;;5031898;28;20176;-62
2020/12/27 04:41:01;;;;;;;1999.90;999.90;;;5.20;99.90;;;;;;5031957;28;20177;-62
2020/12/27 04:43:27;;;;;;;1999.90;999.90;;;5.20;99.90;;;;;;5032136;28;20415;-63
2020/12/27 04:45:58;;;;;;;1999.90;999.90;;;5.20;99.90;;;;;;5032234;28;20188;-62
2020/12/27 04:48:24;;;;;;;1999.90;999.90;;;5.30;99.90;;;;;;5031742;28;20229;-62
2020/12/27 04:50:51;;;;;;;1999.90;999.90;;;5.30;99.90;;;;;;5031774;28;20180;-62
2020/12/27 04:53:17;;;;;;;1999.90;999.90;;;5.30;99.90;;;;;;5031436;28;20439;-62
2020/12/27 04:55:43;;;;;;;1999.90;999.90;;;5.30;99.90;;;;;;5031527;28;20191;-63
2020/12/27 04:58:18;;;;;;;1999.90;999.90;;;5.40;99.90;;;;;;5031403;28;20763;-62
2020/12/27 05:00:43;;;;;;;1999.90;999.90;;;5.40;99.90;;;;;;5031322;28;20402;-62
2020/12/27 05:03:09;;;;;;;1999.90;999.90;;;5.40;99.90;;;;;;5031425;28;20418;-62
2020/12/27 05:05:34;;;;;;;1999.90;999.90;;;5.40;99.90;;;;;;5031328;28;20680;-62
2020/12/27 05:08:00;;;;;;;1999.90;999.90;;;5.40;99.90;;;;;;5031113;28;20184;-61
2020/12/27 05:10:26;;;;;;;1999.90;999.90;;;5.50;99.90;;;;;;5031010;28;20211;-62
2020/12/27 05:12:53;;;;;;;1999.90;999.90;;;5.50;99.90;;;;;;5031186;28;20255;-61
2020/12/27 05:15:22;;;;;;;1999.90;999.90;;;5.40;99.90;;;;;;5031044;28;20184;-62
2020/12/27 05:17:48;;;;;;;1999.90;999.90;;;5.50;99.90;;;;;;5031162;28;20395;-62
2020/12/27 05:20:14;;;;;;;1999.90;999.90;;;5.50;99.90;;;;;;5031031;28;20870;-62
2020/12/27 05:22:41;;;;;;;1999.90;999.90;;;5.50;99.90;;;;;;5031161;28;20180;-61
2020/12/27 05:25:07;;;;;;;1999.90;999.90;;;5.50;99.90;;;;;;5030880;28;20442;-62
2020/12/27 05:27:40;;;;;;;1999.90;999.90;;;5.50;99.90;;;;;;5030962;28;20504;-62
2020/12/27 05:30:06;;;;;;;1999.90;999.90;;;5.60;99.90;;;;;;5030739;28;20589;-61
2020/12/27 05:32:32;;;;;;;1999.90;999.90;;;5.60;99.90;;;;;;5030918;28;20427;-61
2020/12/27 05:34:58;;;;;;;1999.90;999.90;;;5.60;99.90;;;;;;5030999;28;20622;-62
2020/12/27 05:37:26;;;;;;;1999.90;999.90;;;5.60;99.90;;;;;;5030954;28;20634;-61
2020/12/27 05:39:51;;;;;;;1999.90;999.90;;;5.60;99.90;;;;;;5030510;28;20182;-61
2020/12/27 05:42:24;;;;;;;1999.90;999.90;;;5.60;99.90;;;;;;5030944;28;20247;-62
2020/12/27 05:44:50;;;;;;;1999.90;999.90;;;5.60;99.90;;;;;;5031058;28;20203;-61
2020/12/27 05:47:16;;;;;;;1999.90;999.90;;;5.60;99.90;;;;;;5031021;28;20425;-62
2020/12/27 05:49:44;;;;;;;1999.90;999.90;;;5.60;99.90;;;;;;5030788;28;20411;-63
2020/12/27 05:52:14;;;;;;;1999.90;999.90;;;5.60;99.90;;;;;;5031133;28;20407;-62
2020/12/27 05:54:46;;;;;;;1999.90;999.90;;;5.60;99.90;;;;;;5030995;28;20833;-62
2020/12/27 05:57:14;;;;;;;1999.90;999.90;;;5.60;99.90;;;;;;5031149;28;20419;-61
2020/12/27 05:59:44;;;;;;;1999.90;999.90;;;5.60;99.90;;;;;;5030770;28;20403;-63
2020/12/27 06:02:40;;;;;;;1999.90;999.90;;;5.60;99.90;;;;;;5030856;28;20403;-62
2020/12/27 06:05:11;;;;;;;1999.90;999.90;;;5.60;99.90;;;;;;5030693;28;20476;-61
2020/12/27 06:07:39;;;;;;;1999.90;999.90;;;5.60;99.90;;;;;;5030879;28;20818;-62
2020/12/27 06:10:08;;;;;;;1999.90;999.90;;;5.60;99.90;;;;;;5030527;28;20413;-62
2020/12/27 06:12:58;;;;;;;1999.90;999.90;;;5.70;99.90;;;;;;5030605;28;20800;-61
2020/12/27 06:15:31;;;;;;;1999.90;999.90;;;5.70;99.90;;;;;;5030610;28;20514;-61
2020/12/27 06:18:11;;;;;;;1999.90;999.90;;;5.70;99.90;;;;;;5030738;28;20494;-62
2020/12/27 06:20:52;;;;;;;1999.90;999.90;;;5.70;99.90;;;;;;5033618;28;20234;-62
2020/12/27 06:23:25;;;;;;;1999.90;999.90;;;5.70;99.90;;;;;;5034380;28;20645;-60
2020/12/27 06:25:52;;;;;;;1999.90;999.90;;;5.80;99.90;;;;;;5033981;28;20450;-60
2020/12/27 06:28:18;;;;;;;1999.90;999.90;;;5.80;99.90;;;;;;5033845;28;20422;-61
2020/12/27 06:30:44;;;;;;;1999.90;999.90;;;5.90;99.90;;;;;;5034029;28;20411;-57
2020/12/27 06:33:23;;;;;;;1999.90;999.90;;;5.90;99.90;;;;;;5033975;28;21170;-59
2020/12/27 06:35:49;;;;;;;1999.90;999.90;;;5.90;99.90;;;;;;5033970;28;20429;-57
2020/12/27 06:38:22;;;;;;;1999.90;999.90;;;5.90;99.90;;;;;;5033615;28;20478;-61
2020/12/27 06:40:57;;;;;;;1999.90;999.90;;;5.90;99.90;;;;;;5033921;28;20156;-55
2020/12/27 06:43:24;;;;;;;1999.90;999.90;;;5.90;99.90;;;;;;5033969;28;20633;-62
2020/12/27 06:45:51;;;;;;;1999.90;999.90;;;5.90;99.90;;;;;;5033738;28;20200;-60
2020/12/27 06:48:36;;;;;;;1999.90;999.90;;;6.00;99.90;;;;;;5033509;28;20418;-60
2020/12/27 06:51:03;;;;;;;1999.90;999.90;;;6.00;99.90;;;;;;5033653;28;20411;-57
2020/12/27 06:53:47;;;;;;;1999.90;999.90;;;6.00;99.90;;;;;;5033615;28;20454;-57
2020/12/27 06:56:13;;;;;;;1999.90;999.90;;;6.00;99.90;;;;;;5033597;28;20410;-60
2020/12/27 06:58:40;;;;;;;1999.90;999.90;;;6.00;99.90;;;;;;5033251;28;20172;-58
2020/12/27 07:01:14;;;;;;;1999.90;999.90;;;6.00;99.90;;;;;;5033429;28;20478;-61
2020/12/27 07:03:41;;;;;;;1999.90;999.90;;;6.00;99.90;;;;;;5033678;28;20835;-60
2020/12/27 07:06:20;;;;;;;1999.90;999.90;;;6.00;99.90;;;;;;5033392;28;20431;-59
2020/12/27 07:08:46;;;;;;;1999.90;999.90;;;6.00;99.90;;;;;;5033137;28;20456;-59
2020/12/27 07:11:17;;;;;;;1999.90;999.90;;;6.00;99.90;;;;;;5033299;28;20407;-60
2020/12/27 07:13:45;;;;;;;1999.90;999.90;;;6.00;99.90;;;;;;5033257;28;20537;-61
2020/12/27 07:16:13;;;;;;;1999.90;999.90;;;6.00;99.90;;;;;;5033181;28;20760;-61
2020/12/27 07:18:39;;;;;;;1999.90;999.90;;;6.00;99.90;;;;;;5032981;28;20411;-61
2020/12/27 07:21:12;;;;;;;1999.90;999.90;;;6.00;99.90;;;;;;5033141;28;20421;-59
2020/12/27 07:23:46;;;;;;;1999.90;999.90;;;6.00;99.90;;;;;;5033142;28;20896;-57
2020/12/27 07:26:12;;;;;;;1999.90;999.90;;;6.00;99.90;;;;;;5032981;28;20223;-56
2020/12/27 07:28:38;;;;;;;1999.90;999.90;;;6.00;99.90;;;;;;5032653;28;20447;-61
2020/12/27 07:31:05;;;;;;;1999.90;999.90;;;6.00;99.90;;;;;;5032932;28;20502;-61
2020/12/27 07:33:33;;;;;;;1999.90;999.90;;;6.00;99.90;;;;;;5032906;28;20222;-59
2020/12/27 07:36:07;;;;;;;1999.90;999.90;;;6.00;99.90;;;;;;5033083;28;20986;-60
2020/12/27 07:39:00;;;;;;;1999.90;999.90;;;6.00;99.90;;;;;;5032620;28;20407;-59
2020/12/27 07:41:37;;;;;;;1999.90;999.90;;;6.00;99.90;;;;;;5027735;28;20502;-61
2020/12/27 07:44:09;;;;;;;1999.90;999.90;;;6.00;99.90;;;;;;5032668;28;20480;-59
2020/12/27 07:46:34;;;;;;;1999.90;999.90;;;6.00;99.90;;;;;;5032831;28;20407;-59
2020/12/27 07:49:00;;;;;;;1999.90;999.90;;;6.00;99.90;;;;;;5032425;28;20460;-58
2020/12/27 07:51:25;;;;;;;1999.90;999.90;;;5.90;99.90;;;;;;5032776;28;20172;-57
2020/12/27 07:53:56;;;;;;;1999.90;999.90;;;5.90;99.90;;;;;;5032489;28;20196;-61
2020/12/27 07:56:26;;;;;;;1999.90;999.90;;;5.90;99.90;;;;;;5032675;28;20692;-58
2020/12/27 07:58:57;;;;;;;1999.90;999.90;;;5.90;99.90;;;;;;5032413;28;20418;-62
2020/12/27 08:01:24;;;;;;;1999.90;999.90;;;5.90;99.90;;;;;;5032595;28;20411;-63
2020/12/27 08:03:58;;;;;;;1999.90;999.90;;;5.90;99.90;;;;;;5032463;28;20415;-63
2020/12/27 08:06:25;;;;;;;1999.90;999.90;;;5.80;99.90;;;;;;5032323;28;20436;-63
2020/12/27 08:09:01;;;;;;;1999.90;999.90;;;5.90;99.90;;;;;;5031974;28;20846;-62
2020/12/27 08:11:28;;;;;;;1999.90;999.90;;;5.90;99.90;;;;;;5032201;28;20493;-62
2020/12/27 08:13:56;;;;;;;1999.90;999.90;;;5.80;99.90;;;;;;5031864;28;20451;-61
2020/12/27 08:16:22;;;;;;;1999.90;999.90;;;5.80;99.90;;;;;;5032034;28;20187;-62
2020/12/27 08:18:48;;;;;;;1999.90;999.90;;;5.90;99.90;;;;;;5031809;28;20888;-63
2020/12/27 08:21:19;;;;;;;1999.90;999.90;;;5.90;99.90;;;;;;5032150;28;20768;-63
2020/12/27 08:23:59;;;;;;;1999.90;999.90;;;5.90;99.90;;;;;;5031950;28;20494;-62
2020/12/27 08:26:25;;;;;;;1999.90;999.90;;;6.00;99.90;;;;;;5031893;28;20406;-62
2020/12/27 08:28:51;;;;;;;1999.90;999.90;;;6.00;99.90;;;;;;5031557;28;20529;-62
2020/12/27 08:31:27;;;;;;;1999.90;999.90;;;6.00;99.90;;;;;;5031726;28;20486;-60
2020/12/27 08:34:07;;;;;;;1999.90;999.90;;;6.00;99.90;;;;;;5031636;28;20188;-63
2020/12/27 08:36:33;;;;;;;1999.90;999.90;;;6.00;99.90;;;;;;5031708;28;20399;-61
2020/12/27 08:39:32;;;;;;;1999.90;999.90;;;6.00;99.90;;;;;;5031420;28;20410;-63
2020/12/27 08:42:07;;;;;;;1999.90;999.90;;;6.10;99.90;;;;;;5022112;28;20189;-61
2020/12/27 08:44:44;;;;;;;1999.90;999.90;;;6.00;99.90;;;;;;5031457;28;20465;-63
2020/12/27 08:47:34;;;;;;;1999.90;999.90;;;6.00;99.90;;;;;;5031515;28;20867;-61
2020/12/27 08:50:10;;;;;;;1999.90;999.90;;;6.10;99.90;;;;;;5031150;28;20897;-63
2020/12/27 08:52:37;;;;;;;1999.90;999.90;;;6.10;99.90;;;;;;5031367;28;20414;-63
2020/12/27 08:55:05;;;;;;;1999.90;999.90;;;6.10;99.90;;;;;;5031401;28;20508;-63
2020/12/27 08:57:31;;;;;;;1999.90;999.90;;;6.10;99.90;;;;;;5031226;28;20403;-63
2020/12/27 09:00:08;;;;;;;1999.90;999.90;;;6.10;99.90;;;;;;5031071;28;20450;-63
2020/12/27 09:02:35;;;;;;;1999.90;999.90;;;6.10;99.90;;;;;;5031454;28;20410;-62
2020/12/27 09:05:13;;;;;;;1999.90;999.90;;;6.10;99.90;;;;;;5031091;28;20419;-63
2020/12/27 09:07:42;;;;;;;1999.90;999.90;;;6.10;99.90;;;;;;5031246;28;20424;-62
2020/12/27 09:10:08;;;;;;;1999.90;999.90;;;6.10;99.90;;;;;;5030871;28;21044;-62
2020/12/27 09:12:35;;;;;;;1999.90;999.90;;;6.10;99.90;;;;;;5031050;28;20418;-62
2020/12/27 09:15:00;;;;;;;1999.90;999.90;;;6.10;99.90;;;;;;5030937;28;20451;-62
2020/12/27 09:17:30;;;;;;;1999.90;999.90;;;6.10;99.90;;;;;;5031104;28;20422;-63
2020/12/27 09:19:56;;;;;;;1999.90;999.90;;;6.10;99.90;;;;;;5030732;28;20175;-62
2020/12/27 09:22:22;;;;;;;1999.90;999.90;;;6.10;99.90;;;;;;5031069;28;20406;-63
2020/12/27 09:25:06;;;;;;;1999.90;999.90;;;6.10;99.90;;;;;;5030830;28;20438;-61
2020/12/27 09:27:32;;;;;;;1999.90;999.90;;;6.20;99.90;;;;;;5031092;28;20423;-63
2020/12/27 09:30:01;;;;;;;1999.90;999.90;;;6.20;99.90;;;;;;5030781;28;20407;-63
2020/12/27 09:32:33;;;;;;;1999.90;999.90;;;6.20;99.90;;;;;;5030872;28;20418;-61
2020/12/27 09:34:58;;;;;;;1999.90;999.90;;;6.20;99.90;;;;;;5030691;28;20979;-62
2020/12/27 09:37:24;;;;;;;1999.90;999.90;;;6.20;99.90;;;;;;5030824;28;20411;-61
2020/12/27 09:39:57;;;;;;;1999.90;999.90;;;6.20;99.90;;;;;;5030589;28;20219;-63
2020/12/27 09:42:30;;;;;;;1999.90;999.90;;;6.20;99.90;;;;;;5030832;28;20395;-59
2020/12/27 09:44:56;;;;;;;1999.90;999.90;;;6.20;99.90;;;;;;5030753;28;20423;-63
2020/12/27 09:47:28;;;;;;;1999.90;999.90;;;6.20;99.90;;;;;;5030732;28;20433;-63
2020/12/27 09:50:09;;;;;;;1999.90;999.90;;;6.20;99.90;;;;;;5030370;28;20403;-63
2020/12/27 09:52:45;;;;;;;1999.90;999.90;;;6.20;99.90;;;;;;5030696;28;20493;-63
2020/12/27 09:55:11;;;;;;;1999.90;999.90;;;6.30;99.90;;;;;;5032871;28;20454;-62
2020/12/27 09:57:36;;;;;;;1999.90;999.90;;;6.30;99.90;;;;;;5034576;28;20461;-61
2020/12/27 10:00:05;;;;;;;1999.90;999.90;;;6.30;99.90;;;;;;5034401;28;20247;-61
2020/12/27 10:02:31;;;;;;;1999.90;999.90;;;6.20;99.90;;;;;;5034532;28;20250;-59
2020/12/27 10:04:56;;;;;;;1999.90;999.90;;;6.20;99.90;;;;;;5034458;28;20431;-61
2020/12/27 10:07:22;;;;;;;1999.90;999.90;;;6.20;99.90;;;;;;5034671;28;20172;-58
2020/12/27 10:09:48;;;;;;;1999.90;999.90;;;6.10;99.90;;;;;;5034242;28;20594;-57
2020/12/27 10:12:14;;;;;;;1999.90;999.90;;;6.10;99.90;;;;;;5034490;28;20207;-59
2020/12/27 10:14:39;;;;;;;1999.90;999.90;;;6.00;99.90;;;;;;5034263;28;20218;-61
2020/12/27 10:17:05;;;;;;;1999.90;999.90;;;6.00;99.90;;;;;;5034276;28;20414;-61
2020/12/27 10:19:31;;;;;;;1999.90;999.90;;;6.00;99.90;;;;;;5034147;28;20168;-59
2020/12/27 10:21:57;;;;;;;1999.90;999.90;;;6.00;99.90;;;;;;5034414;28;20172;-58
2020/12/27 10:24:24;;;;;;;1999.90;999.90;;;6.00;99.90;;;;;;5034512;28;20446;-63
2020/12/27 10:26:51;;;;;;;1999.90;999.90;;;5.90;99.90;;;;;;5034348;28;20564;-62
2020/12/27 10:29:17;;;;;;;1999.90;999.90;;;5.90;99.90;;;;;;5034010;28;20449;-61
2020/12/27 10:31:42;;;;;;;1999.90;999.90;;;5.90;99.90;;;;;;5034316;28;20489;-62
2020/12/27 10:34:08;;;;;;;1999.90;999.90;;;5.80;99.90;;;;;;5034351;28;21094;-61
2020/12/27 10:36:34;;;;;;;1999.90;999.90;;;5.80;99.90;;;;;;5027725;28;20255;-61
2020/12/27 10:39:00;;;;;;;1999.90;999.90;;;5.70;99.90;;;;;;5032429;28;20959;-61
2020/12/27 10:41:25;;;;;;;1999.90;999.90;;;5.70;99.90;;;;;;5032221;28;20175;-61
2020/12/27 10:43:51;;;;;;;1999.90;999.90;;;5.70;99.90;;;;;;5032735;28;20172;-61
2020/12/27 10:46:18;;;;;;;1999.90;999.90;;;5.70;99.90;;;;;;5032017;28;20650;-60
2020/12/27 10:48:44;;;;;;;1999.90;999.90;;;5.70;99.90;;;;;;5031947;28;20180;-60
2020/12/27 10:51:10;;;;;;;1999.90;999.90;;;5.70;99.90;;;;;;5032426;28;20421;-59
2020/12/27 10:53:36;;;;;;;1999.90;999.90;;;5.70;99.90;;;;;;5033036;28;20474;-60
2020/12/27 10:56:02;;;;;;;1999.90;999.90;;;5.70;99.90;;;;;;5032017;28;20200;-59
2020/12/27 10:58:28;;;;;;;1999.90;999.90;;;5.70;99.90;;;;;;5032185;28;21013;-58
2020/12/27 11:00:54;;;;;;;1999.90;999.90;;;5.70;99.90;;;;;;5031390;28;20423;-61
2020/12/27 11:03:19;;;;;;;1999.90;999.90;;;5.70;99.90;;;;;;5031609;28;20230;-57
2020/12/27 11:05:46;;;;;;;1999.90;999.90;;;5.70;99.90;;;;;;5031544;28;20200;-62
2020/12/27 11:08:12;;;;;;;1999.90;999.90;;;5.70;99.90;;;;;;5033920;28;20179;-61
2020/12/27 11:10:37;;;;;;;1999.90;999.90;;;5.80;99.90;;;;;;5033704;28;20180;-62
2020/12/27 11:13:03;;;;;;;1999.90;999.90;;;5.70;99.90;;;;;;5033388;28;20267;-61
2020/12/27 11:15:32;;;;;;;1999.90;999.90;;;5.70;99.90;;;;;;5031858;28;20188;-62
2020/12/27 11:18:00;;;;;;;1999.90;999.90;;;5.70;99.90;;;;;;5031925;28;20203;-61
2020/12/27 11:20:27;;;;;;;1999.90;999.90;;;5.70;99.90;;;;;;5030878;28;20415;-62
2020/12/27 11:22:52;;;;;;;1999.90;999.90;;;5.80;99.90;;;;;;5031729;28;20415;-62
2020/12/27 11:25:18;;;;;;;1999.90;999.90;;;5.80;99.90;;;;;;5032340;28;20447;-60
2020/12/27 11:27:44;;;;;;;1999.90;999.90;;;5.80;99.90;;;;;;5032592;28;20176;-62
2020/12/27 11:30:09;;;;;;;1999.90;999.90;;;5.80;99.90;;;;;;5032130;28;20168;-61
2020/12/27 11:32:35;;;;;;;1999.90;999.90;;;5.90;99.90;;;;;;5031430;28;20164;-60
2020/12/27 11:35:00;;;;;;;1999.90;999.90;;;5.80;99.90;;;;;;5031289;28;20211;-62
2020/12/27 11:37:26;;;;;;;1999.90;999.90;;;5.80;99.90;;;;;;5031291;28;20174;-61
2020/12/27 11:39:52;;;;;;;1999.90;999.90;;;5.90;99.90;;;;;;5030964;28;20259;-59
2020/12/27 11:42:17;;;;;;;1999.90;999.90;;;6.10;99.90;;;;;;5030397;28;20175;-63
2020/12/27 11:44:43;;;;;;;1999.90;999.90;;;6.10;99.90;;;;;;5031077;28;20237;-62
2020/12/27 11:47:08;;;;;;;1999.90;999.90;;;6.10;99.90;;;;;;5031246;28;20191;-60
2020/12/27 11:49:34;;;;;;;1999.90;999.90;;;6.10;99.90;;;;;;5031594;28;20887;-59
2020/12/27 11:52:00;;;;;;;1999.90;999.90;;;6.10;99.90;;;;;;5030975;28;20191;-61
2020/12/27 11:54:26;;;;;;;1999.90;999.90;;;6.00;99.90;;;;;;5030937;28;20482;-62
2020/12/27 11:56:57;;;;;;;1999.90;999.90;;;6.00;99.90;;;;;;5030464;28;20171;-62
2020/12/27 11:59:24;;;;;;;1999.90;999.90;;;6.00;99.90;;;;;;5030673;28;20183;-60
2020/12/27 12:01:50;;;;;;;1999.90;999.90;;;5.90;99.90;;;;;;5030809;28;20395;-61
2020/12/27 12:04:16;;;;;;;1999.90;999.90;;;6.00;99.90;;;;;;5030236;28;20438;-58
2020/12/27 12:06:42;;;;;;;1999.90;999.90;;;5.90;99.90;;;;;;5030821;28;20453;-61
2020/12/27 12:09:11;;;;;;;1999.90;999.90;;;6.00;99.90;;;;;;5030346;28;20411;-60
2020/12/27 12:11:39;;;;;;;1999.90;999.90;;;6.00;99.90;;;;;;5030320;28;21051;-62
2020/12/27 12:14:05;;;;;;;1999.90;999.90;;;5.90;99.90;;;;;;5030570;28;20884;-59